Cactus Peak, Santa Catalina Island Weather observations

Data are for 10 minute period ending at time listed.
 Day   Time   Solar   Ave.   Ave.  Ave.  Vector    Max.   Stn.    Total
  of    of     Rad.   Air    Rel.  Wind   Wind     Wind   Baro.  Precip.
Year   Day            Temp.  Hum.  Speed  Dir.     Gust   Pres.         
2016   (PST)   W/m2    F      %     mph   deg.      mph    mb.     in.  
------------------------------------------------------------------------
 336    9:40  176.0    57   80.3     3    321.2     4.2    999.0   0.00  
 336    9:50  168.0    55   83.8     3    301.7     4.8    999.0   0.00  
 336   10:00  144.0    54   84.8     3    334.6     4.8    999.0   0.00  
 336   10:10  183.0    55   83.6     1     12.9     4.2    999.0   0.00  
 336   10:20  478.0    56   80.4     2    315.7     4.8    999.0   0.00  
 336   10:30  252.0    57   78.0     2     81.0     6.0    999.0   0.00  
 336   10:40  337.0    57   78.0     3    143.9     4.8    999.0   0.00  
 336   10:50  180.0    56   80.1     5     21.5     8.4    999.0   0.00  
 336   11:00  142.0    55   82.0     3     72.3     8.4    999.0   0.00  
 336   11:10  140.0    56   81.1     2     71.9     4.8    999.0   0.00  
 336   11:20  285.0    56   82.0     3    181.4     6.6    999.0   0.00  
 336   11:30  345.0    57   81.5     4    162.5    10.2    999.0   0.00  
 336   11:40  682.0    59   78.3     4    148.0     9.0    999.0   0.00  
 336   11:50  684.0    59   77.4     5    128.8    10.8    999.0   0.00  
 336   12:00  543.0    58   78.1     7    160.9    11.3    999.0   0.00  
 336   12:10  648.0    57   80.3     9    165.3    15.5    999.0   0.00  
 336   12:20  605.0    58   78.1     6    153.0     9.6    999.0   0.00  
 336   12:30  625.0    58   77.1     8    161.7    13.7    999.0   0.00  
 336   12:40  597.0    58   76.7     8    158.1    13.1    999.0   0.00  
 336   12:50  539.0    58   74.9     6    146.3    10.2    999.0   0.00  
 336   13:00  511.0    59   72.8     7    155.0    10.8    999.0   0.00  
 336   13:10  512.0    58   73.3     8    159.7    13.1    999.0   0.00  
 336   13:20  501.0    58   75.7     8    166.5    11.9    999.0   0.00  
 336   13:30  484.0    57   76.1     8    166.0    13.1    999.0   0.00  
 336   13:40  469.0    58   74.1     8    166.5    13.7    999.0   0.00  
 336   13:50  438.0    58   75.4     9    170.5    13.1    999.0   0.00  
 336   14:00  450.0    57   78.0     9    168.7    13.1    999.0   0.00  
 336   14:10  490.0    58   76.5     9    176.8    13.7    999.0   0.00  
 336   14:20  388.0    58   74.2     8    173.8    11.3    999.0   0.00  
 336   14:30  422.0    57   77.6     9    179.1    14.3    999.0   0.00  
 336   14:40  223.0    56   80.0     8    184.1    11.3    999.0   0.00  
 336   14:50  173.0    56   80.0     6    174.2    10.2    999.0   0.00  
 336   15:00  111.0    55   82.7     6    169.8    10.8    999.0   0.00  
 336   15:10  107.0    55   84.0     6    175.4     9.6    999.0   0.00  
 336   15:20  129.0    55   85.0     4    196.1     9.0    999.0   0.00  
 336   15:30   89.0    55   84.4     6    178.7    10.2    999.0   0.00  
 336   15:40  117.0    55   84.7     5    216.2     8.4    999.0   0.00  
 336   15:50  112.0    55   83.6     3    166.2     7.8    999.0   0.00  
 336   16:00  108.0    55   84.3     4    178.7     7.2    999.0   0.00  
 336   16:10  123.0    56   82.3     1     94.6     3.6    999.0   0.00  
 336   16:20   82.0    57   79.7     2    235.3     2.4    999.0   0.00  
 336   16:30   52.0    57   79.4     2    233.9     4.2    999.0   0.00  
 336   16:40   27.0    55   82.4     2    222.0     3.6    999.0   0.00  
 336   16:50   12.0    54   85.9     4    274.4     4.8    999.0   0.00  
 336   17:00    3.0    52   88.3     6    291.6     7.8    999.0   0.00  
 336   17:10    2.0    52   89.4     6    302.3     7.8    999.0   0.00  
 336   17:20    0.0    51   90.5     8    321.7    10.8    999.0   0.00  
 336   17:30    0.0    51   91.2    10    328.5    11.3    999.0   0.00  
 336   17:40    0.0    51   91.8    10    329.6    11.9    999.0   0.00  
 336   17:50    0.0    51   92.6    10    334.7    11.9    999.0   0.00  
 336   18:00    0.0    51   93.2     9    329.7    10.8    999.0   0.00  
 336   18:10    0.0    51   93.7     9    343.9    10.8    999.0   0.00  
 336   18:20    0.0    51   94.1     9    340.0    11.3    999.0   0.00  
 336   18:30    0.0    51   94.5    10    327.4    12.5    999.0   0.00  
 336   18:40    0.0    51   95.1    11    330.0    13.1    999.0   0.00  
 336   18:50    0.0    51   95.7    11    333.4    13.7    999.0   0.00  
 336   19:00    0.0    50   96.0    14    339.5    17.3    999.0   0.00  
 336   19:10    0.0    50   95.6    14    343.6    17.9    999.0   0.00  
 336   19:20    0.0    50   95.8    13    349.4    16.1    999.0   0.00  
 336   19:30    0.0    50   95.5    12    355.1    14.9    999.0   0.00  
 336   19:40    0.0    50   94.9    11    352.4    13.7    999.0   0.00  
 336   19:50    0.0    50   94.0    10    359.5    12.5    999.0   0.00  
 336   20:00    0.0    50   93.9    11    356.6    14.9    999.0   0.00  
 336   20:10    0.0    50   94.1    10    353.5    13.1    999.0   0.00  
 336   20:20    0.0    50   92.7    12    349.6    13.7    999.0   0.00  
 336   20:30    0.0    50   84.0    11    346.2    13.7    999.0   0.00  
 336   20:40    0.0    51   78.1    10    349.5    12.5    999.0   0.00  
 336   20:50    0.0    51   74.8     9    355.5    10.8    999.0   0.00  
 336   21:00    0.0    52   71.2    10    352.8    11.3    999.0   0.00  
 336   21:10    0.0    52   69.3    10    358.0    13.7    999.0   0.00  
 336   21:20    0.0    52   69.4     9    352.9    10.8    999.0   0.00  
 336   21:30    0.0    52   70.8     8    339.8     9.0    999.0   0.00  
 336   21:40    0.0    52   74.5     6    327.2     7.8    999.0   0.00  
 336   21:50    0.0    52   78.2     8    329.0     9.0    999.0   0.00  
 336   22:00    0.0    51   80.3     9    333.3     9.6    999.0   0.00  
 336   22:10    0.0    51   83.4     9    330.0    10.2    999.0   0.00  
 336   22:20    0.0    51   85.5     9    338.4     9.6    999.0   0.00  
 336   22:30    0.0    51   86.2     8    344.9    10.2    999.0   0.00  
 336   22:40    0.0    51   84.1     8    354.3     9.6    999.0   0.00  
 336   22:50    0.0    51   80.4     8    356.6     9.6    999.0   0.00  
 336   23:00    0.0    52   76.7     7    351.4    10.2    999.0   0.00  
 336   23:10    0.0    52   76.3     7    330.5     8.4    999.0   0.00  
 336   23:20    0.0    52   77.3     8    324.4     9.0    999.0   0.00  
 336   23:30    0.0    52   78.0     7    332.4    10.2    999.0   0.00  
 336   23:40    0.0    52   79.2     7    331.2     8.4    999.0   0.00  
 336   23:50    0.0    52   78.7     6    326.0     7.8    999.0   0.00  
 337    0:00    0.0    52   75.6     6    328.1     7.2    999.0   0.00  
 337    0:10    0.0    52   71.8     6    329.8     7.2    999.0   0.00  
 337    0:20    0.0    52   70.8     5    312.9     6.6    999.0   0.00  
 337    0:30    0.0    52   70.8     6    299.4     7.2    999.0   0.00  
 337    0:40    0.0    52   67.4     6    297.3     7.2    999.0   0.00  
 337    0:50    0.0    52   60.5     6    301.7     6.6    999.0   0.00  
 337    1:00    0.0    52   55.4     5    313.7     6.0    999.0   0.00  
 337    1:10    0.0    52   58.9     6    328.1     7.8    999.0   0.00  
 337    1:20    0.0    52   63.9     6    318.7     7.2    999.0   0.00  
 337    1:30    0.0    52   69.3     7    304.8     8.4    999.0   0.00  
 337    1:40    0.0    51   77.2     7    311.8     8.4    999.0   0.00  
 337    1:50    0.0    51   73.0     8    332.4     9.6    999.0   0.00  
 337    2:00    0.0    52   68.9     8    343.2     9.6    999.0   0.00  
 337    2:10    0.0    52   67.6     8    349.7     8.4    999.0   0.00  
 337    2:20    0.0    51   69.3     7      9.2     9.0    999.0   0.00  
 337    2:30    0.0    51   67.3     8     21.3     9.6    999.0   0.00  
 337    2:40    0.0    51   65.4     9     28.2    11.3    999.0   0.00  
 337    2:50    0.0    52   64.4    11     24.0    12.5    999.0   0.00  
 337    3:00    0.0    52   62.6    11     24.2    12.5    999.0   0.00  
 337    3:10    0.0    52   63.7    11     21.4    14.9    999.0   0.00  
 337    3:20    0.0    51   63.0    13     19.8    15.5    999.0   0.00  
 337    3:30    0.0    51   60.2    14     17.8    19.7    999.0   0.00  
 337    3:40    0.0    52   60.1    13     17.0    15.5    999.0   0.00  
 337    3:50    0.0    51   61.7    12     20.2    14.9    999.0   0.00  
 337    4:00    0.0    51   62.3    13     13.3    18.5    999.0   0.00  
 337    4:10    0.0    51   62.3    12     12.0    16.1    999.0   0.00  
 337    4:20    0.0    51   60.9    11     12.1    13.1    999.0   0.00  
 337    4:30    0.0    51   59.6    11      9.2    12.5    999.0   0.00  
 337    4:40    0.0    51   59.6    10     14.0    13.1    999.0   0.00  
 337    4:50    0.0    51   58.2    13     15.5    16.1    999.0   0.00  
 337    5:00    0.0    51   56.9    13     14.3    17.3    999.0   0.00  
 337    5:10    0.0    51   57.0    14     12.4    16.7    999.0   0.00  
 337    5:20    0.0    51   58.4    16     15.1    19.1    999.0   0.00  
 337    5:30    0.0    51   59.3    15     12.2    18.5    999.0   0.00  
 337    5:40    0.0    51   60.8    15      9.3    19.1    999.0   0.00  
 337    5:50    0.0    50   62.6    18     11.7    24.5    999.0   0.00  
 337    6:00    0.0    51   62.4    19     13.6    23.9    999.0   0.00  
 337    6:10    0.0    52   59.2    21     14.4    28.0    999.0   0.00  
 337    6:20    0.0    52   60.3    21     12.2    26.2    999.0   0.00  
 337    6:30    0.0    51   60.8    21      9.9    28.6    999.0   0.00  
 337    6:40    0.0    51   61.5    20      6.5    26.2    999.0   0.00  
 337    6:50    4.0    51   69.3    21     11.0    28.6    999.0   0.00  
 337    7:00    8.0    51   74.8    24     12.9    31.6    999.0   0.00  
 337    7:10   13.0    51   68.8    28     14.6    35.2    999.0   0.00  
 337    7:20   24.0    51   55.1    28     16.6    34.6    999.0   0.00  
 337    7:30   75.0    52   49.7    25     15.2    31.6    999.0   0.00  
 337    7:40  108.0    52   46.1    26     17.4    32.8    999.0   0.00  
 337    7:50  137.0    52   46.8    25     16.3    34.0    999.0   0.00  
 337    8:00  164.0    52   48.5    26     17.8    32.2    999.0   0.00  
 337    8:10  194.0    52   51.3    24     11.5    31.0    999.0   0.00  
 337    8:20  223.0    52   49.1    22      2.7    26.8    999.0   0.00  
 337    8:30  253.0    52   46.0    21      8.2    28.0    999.0   0.00  
 337    8:40  280.0    52   44.3    23     10.1    33.4    999.0   0.00  
 337    8:50  308.0    52   43.3    25     13.8    34.0    999.0   0.00  
 337    9:00  333.0    52   45.7    25      8.1    32.2    999.0   0.00  
 337    9:10  359.0    53   45.0    26      8.8    32.8    999.0   0.00  
 337    9:20  383.0    53   45.2    26      9.3    35.2    999.0   0.00  
 337    9:30  407.0    53   41.7    28      5.3    37.0    999.0   0.00  

Return to Cactus Peak graphs page.


Western Regional Climate Center,wrcc@dri.edu